Woodbine, Iowa
Current Conditions -  °F | °C
As of 10:35 AM on Monday 26 Jan 2015 (Local Time) from KHNR Reporting Station
Clear Clear  
Wind Chill: 35°   Ceiling: Unl
Heat Index: 43°   Visibility: 10mi
Dew Point: 39°   Wind: 17mph
Humidity: 87%   Direction: 310°NW
Pressure: 29.89"   Gusts: NA
Location:  41.74°N, 95.7°W
Report Text: KHNR 261635Z AUTO 31015KT 10SM CLR 06/04 A2989 RMK AO2
Loading
Personal Weather Stations






























Interactive Weather Map New forecast layout! Learn more

10-Day Weather Forecast

Advertisements
Track Severe Weather on mobile